Time;durP1;ratioP1;P1;durP2;ratioP2;P2;SDS_P1;SDS_P2;PMS_P1;PMS_P2;Temp;Humidity;BMP_temperature;BMP_pressure;BME280_temperature;BME280_humidity;BME280_pressure;Samples;Min_cycle;Max_cycle;Signal;HPM_P1;HPM_P2
2023/01/21 00:00:56;;;;;;;15.70;8.60;;;1.40;99.90;;;;;;5035863;28;20195;-64
2023/01/21 00:03:22;;;;;;;17.13;9.07;;;1.30;99.90;;;;;;5029089;28;20570;-64
2023/01/21 00:05:48;;;;;;;16.00;9.97;;;1.20;99.90;;;;;;5035204;28;20209;-64
2023/01/21 00:08:13;;;;;;;15.50;8.43;;;1.10;99.90;;;;;;5036162;28;20194;-66
2023/01/21 00:10:39;;;;;;;15.50;8.33;;;1.00;99.90;;;;;;5024667;28;20728;-63
2023/01/21 00:13:04;;;;;;;15.20;10.43;;;0.90;99.90;;;;;;5026059;28;20238;-64
2023/01/21 00:15:30;;;;;;;15.70;9.13;;;0.80;99.90;;;;;;5025149;28;20201;-65
2023/01/21 00:17:55;;;;;;;14.37;8.47;;;0.70;99.90;;;;;;5024779;28;20668;-64
2023/01/21 00:20:21;;;;;;;15.07;8.17;;;0.70;99.90;;;;;;5025099;28;20695;-65
2023/01/21 00:22:46;;;;;;;10.90;7.23;;;0.70;99.90;;;;;;5024817;28;20247;-65
2023/01/21 00:25:12;;;;;;;10.30;7.37;;;0.60;99.90;;;;;;5024640;28;20198;-66
2023/01/21 00:27:38;;;;;;;10.83;6.67;;;0.60;99.90;;;;;;5023028;28;20389;-63
2023/01/21 00:30:04;;;;;;;12.57;8.40;;;0.50;99.90;;;;;;5023551;28;20209;-62
2023/01/21 00:32:29;;;;;;;12.40;8.50;;;0.50;99.90;;;;;;5023362;28;20234;-63
2023/01/21 00:34:55;;;;;;;14.27;8.20;;;0.50;99.90;;;;;;5023499;28;20222;-64
2023/01/21 00:37:20;;;;;;;10.13;7.33;;;0.40;99.90;;;;;;5023475;28;20889;-63
2023/01/21 00:39:46;;;;;;;13.53;7.80;;;0.50;99.90;;;;;;5022583;28;20217;-64
2023/01/21 00:42:11;;;;;;;13.33;7.77;;;0.50;99.90;;;;;;5024777;28;20226;-64
2023/01/21 00:44:39;;;;;;;11.13;7.40;;;0.50;99.90;;;;;;5023972;28;21037;-65
2023/01/21 00:47:05;;;;;;;11.03;7.77;;;0.50;99.90;;;;;;5024309;28;20192;-64
2023/01/21 00:49:31;;;;;;;12.70;7.37;;;0.60;99.90;;;;;;5023893;28;20230;-64
2023/01/21 00:51:57;;;;;;;8.77;6.73;;;0.60;99.90;;;;;;5024904;28;20261;-63
2023/01/21 00:54:23;;;;;;;9.43;6.87;;;0.60;99.90;;;;;;5024595;28;20224;-64
2023/01/21 00:56:49;;;;;;;8.73;7.20;;;0.50;99.90;;;;;;5025358;28;20235;-65
2023/01/21 00:59:14;;;;;;;15.07;7.23;;;0.50;99.90;;;;;;5025003;28;20196;-64
2023/01/21 01:01:40;;;;;;;11.83;7.37;;;0.50;99.90;;;;;;5024039;28;20198;-64
2023/01/21 01:04:06;;;;;;;9.47;6.60;;;0.50;99.90;;;;;;5022794;28;20569;-65
2023/01/21 01:06:31;;;;;;;11.53;6.80;;;0.50;99.90;;;;;;5024156;28;20399;-63
2023/01/21 01:08:57;;;;;;;10.50;7.20;;;0.40;99.90;;;;;;5023491;28;20235;-64
2023/01/21 01:11:27;;;;;;;10.17;7.60;;;0.40;99.90;;;;;;5020542;28;20713;-64
2023/01/21 01:13:53;;;;;;;11.13;7.87;;;0.40;99.90;;;;;;5024155;28;20224;-64
2023/01/21 01:16:21;;;;;;;11.30;7.80;;;0.40;99.90;;;;;;5023449;28;20274;-63
2023/01/21 01:18:47;;;;;;;12.47;7.37;;;0.40;99.90;;;;;;5023088;28;20277;-63
2023/01/21 01:21:16;;;;;;;11.53;8.10;;;0.40;99.90;;;;;;5024397;28;20244;-64
2023/01/21 01:23:42;;;;;;;10.47;8.50;;;0.40;99.90;;;;;;5024656;28;20243;-64
2023/01/21 01:26:11;;;;;;;10.70;7.67;;;0.50;99.90;;;;;;5024476;28;20224;-63
2023/01/21 01:28:36;;;;;;;9.63;7.20;;;0.50;99.90;;;;;;5023818;28;20950;-65
2023/01/21 01:31:07;;;;;;;11.20;8.20;;;0.50;99.90;;;;;;5023624;28;20203;-64
2023/01/21 01:33:33;;;;;;;13.53;7.50;;;0.60;99.90;;;;;;5025093;28;20208;-64
2023/01/21 01:36:07;;;;;;;10.27;6.60;;;0.60;99.90;;;;;;5024411;28;20208;-62
2023/01/21 01:38:36;;;;;;;9.33;6.13;;;0.60;99.90;;;;;;5022796;28;20200;-63
2023/01/21 01:41:02;;;;;;;10.37;6.93;;;0.60;99.90;;;;;;5023260;28;20375;-65
2023/01/21 01:43:51;;;;;;;9.13;7.00;;;0.50;99.90;;;;;;5024318;28;20579;-64
2023/01/21 01:46:17;;;;;;;14.60;6.37;;;0.50;99.90;;;;;;5025168;28;20279;-64
2023/01/21 01:48:47;;;;;;;8.23;6.60;;;0.50;99.90;;;;;;5027585;28;20850;-64
2023/01/21 01:51:13;;;;;;;11.03;6.40;;;0.50;99.90;;;;;;5027769;28;20533;-63
2023/01/21 01:53:44;;;;;;;8.17;6.53;;;0.60;99.90;;;;;;5026655;28;20208;-63
2023/01/21 01:56:09;;;;;;;7.13;5.77;;;0.60;99.90;;;;;;5028345;28;20238;-63
2023/01/21 01:58:36;;;;;;;7.77;5.63;;;0.50;99.90;;;;;;5024783;28;20258;-63
2023/01/21 02:01:02;;;;;;;8.03;6.20;;;0.60;99.90;;;;;;5027370;28;20225;-64
2023/01/21 02:03:45;;;;;;;7.80;5.57;;;0.50;99.90;;;;;;5026969;28;20667;-63
2023/01/21 02:06:16;;;;;;;11.30;8.57;;;0.50;99.90;;;;;;5029171;28;20202;-64
2023/01/21 02:08:44;;;;;;;12.20;8.07;;;0.50;99.90;;;;;;5025627;28;20714;-63
2023/01/21 02:11:15;;;;;;;15.90;8.77;;;0.50;99.90;;;;;;5027929;28;20528;-64
2023/01/21 02:13:43;;;;;;;14.80;8.53;;;0.50;99.90;;;;;;5024831;28;20672;-63
2023/01/21 02:16:31;;;;;;;12.30;7.90;;;0.40;99.90;;;;;;5026709;28;20327;-64
2023/01/21 02:19:42;;;;;;;13.73;8.83;;;0.40;99.90;;;;;;5026611;28;20239;-63
2023/01/21 02:22:30;;;;;;;19.37;10.60;;;0.40;99.90;;;;;;5027480;28;20752;-63
2023/01/21 02:25:24;;;;;;;17.00;10.37;;;0.50;99.90;;;;;;5026059;28;20706;-64
2023/01/21 02:28:06;;;;;;;14.87;10.90;;;0.50;99.90;;;;;;5025206;28;20287;-63
2023/01/21 02:30:51;;;;;;;18.03;10.27;;;0.50;99.90;;;;;;5026091;28;20288;-63
2023/01/21 02:33:26;;;;;;;19.23;12.13;;;0.60;99.90;;;;;;5024143;28;20201;-64
2023/01/21 02:36:21;;;;;;;17.73;10.73;;;0.60;99.90;;;;;;5027061;28;20266;-62
2023/01/21 02:38:59;;;;;;;20.03;11.40;;;0.60;99.90;;;;;;5025814;28;20685;-64
2023/01/21 02:41:41;;;;;;;19.40;11.80;;;0.60;99.90;;;;;;5024447;28;20703;-63
2023/01/21 02:44:20;;;;;;;17.80;9.87;;;0.60;99.90;;;;;;5025720;28;20599;-63
2023/01/21 02:46:54;;;;;;;17.50;10.17;;;0.60;99.90;;;;;;5025343;28;20930;-64
2023/01/21 02:49:41;;;;;;;16.77;10.50;;;0.60;99.90;;;;;;5026725;28;20229;-64
2023/01/21 02:52:06;;;;;;;17.07;10.27;;;0.60;99.90;;;;;;5025730;28;20209;-63
2023/01/21 02:54:37;;;;;;;13.90;9.33;;;0.70;99.90;;;;;;5027128;28;20210;-63
2023/01/21 02:57:09;;;;;;;16.17;9.87;;;0.70;99.90;;;;;;5027592;28;20232;-63
2023/01/21 02:59:35;;;;;;;13.20;9.03;;;0.70;99.90;;;;;;5027107;28;20244;-64
2023/01/21 03:02:23;;;;;;;17.13;9.87;;;0.80;99.90;;;;;;5019505;28;20206;-64
2023/01/21 03:05:15;;;;;;;18.07;10.53;;;0.80;99.90;;;;;;5012705;28;20216;-63
2023/01/21 03:07:47;;;;;;;16.07;8.77;;;0.90;99.90;;;;;;5036082;28;20683;-63
2023/01/21 03:10:30;;;;;;;17.87;9.57;;;0.90;99.90;;;;;;5035144;28;20210;-64
2023/01/21 03:19:03;;;;;;;13.73;8.23;;;0.80;99.90;;;;;;5036071;28;20755;-64
2023/01/21 03:21:30;;;;;;;14.80;9.67;;;0.90;99.90;;;;;;5038220;28;20204;-63
2023/01/21 03:23:58;;;;;;;11.63;8.57;;;0.90;99.90;;;;;;5038232;28;20738;-63
2023/01/21 03:26:31;;;;;;;11.73;7.47;;;0.90;99.90;;;;;;5038067;28;20242;-63
2023/01/21 03:28:59;;;;;;;11.13;8.23;;;1.00;99.90;;;;;;5038433;28;20209;-63
2023/01/21 03:31:29;;;;;;;11.13;7.63;;;1.00;99.90;;;;;;5035376;28;20208;-63
2023/01/21 03:33:59;;;;;;;10.53;7.63;;;1.10;99.90;;;;;;5024727;28;20193;-63
2023/01/21 03:36:47;;;;;;;12.77;7.23;;;1.10;99.90;;;;;;5038177;28;20228;-62
2023/01/21 03:39:36;;;;;;;11.90;8.33;;;1.10;99.90;;;;;;5036595;28;20198;-62
2023/01/21 03:42:02;;;;;;;11.20;7.53;;;1.10;99.90;;;;;;5037519;28;20756;-62
2023/01/21 03:44:27;;;;;;;10.13;7.53;;;1.10;99.90;;;;;;5026468;28;20290;-62
2023/01/21 03:47:14;;;;;;;10.27;7.30;;;1.10;99.90;;;;;;5031156;28;20268;-63
2023/01/21 03:49:46;;;;;;;14.73;8.60;;;1.00;99.90;;;;;;5027622;28;20225;-63
2023/01/21 03:52:13;;;;;;;8.57;6.57;;;1.00;99.90;;;;;;5025025;28;20197;-64
2023/01/21 03:54:39;;;;;;;11.30;8.27;;;1.00;99.90;;;;;;5026066;28;20213;-64
2023/01/21 03:57:05;;;;;;;11.20;7.53;;;1.00;99.90;;;;;;5030809;28;20213;-64
2023/01/21 03:59:30;;;;;;;9.93;6.70;;;1.00;99.90;;;;;;5037261;28;20263;-64
2023/01/21 04:01:56;;;;;;;10.27;6.83;;;1.00;99.90;;;;;;5035521;28;20301;-64
2023/01/21 04:04:21;;;;;;;9.27;7.53;;;1.00;99.90;;;;;;5037387;28;20204;-63
2023/01/21 04:06:47;;;;;;;7.53;6.53;;;1.00;99.90;;;;;;5037098;28;21080;-63
2023/01/21 04:09:12;;;;;;;9.03;6.43;;;0.90;99.90;;;;;;5037004;28;20193;-63
2023/01/21 04:11:38;;;;;;;9.80;6.97;;;0.90;99.90;;;;;;5037396;28;20300;-63
2023/01/21 04:14:03;;;;;;;8.83;5.63;;;0.80;99.90;;;;;;5035346;28;20201;-62
2023/01/21 04:16:29;;;;;;;8.27;6.43;;;0.70;99.90;;;;;;5037282;28;20316;-63
2023/01/21 04:18:55;;;;;;;9.80;6.23;;;0.60;99.90;;;;;;5037252;28;20901;-63
2023/01/21 04:21:20;;;;;;;7.70;6.03;;;0.60;99.90;;;;;;5036815;28;20224;-63
2023/01/21 04:23:45;;;;;;;8.87;6.40;;;0.60;99.90;;;;;;5036858;28;20201;-62
2023/01/21 04:26:11;;;;;;;8.70;6.97;;;0.60;99.90;;;;;;5036921;28;20790;-62
2023/01/21 04:28:36;;;;;;;6.83;5.93;;;0.60;99.90;;;;;;5034904;28;20213;-62
2023/01/21 04:31:02;;;;;;;7.27;5.83;;;0.50;99.90;;;;;;5036958;28;20264;-61
2023/01/21 04:33:29;;;;;;;9.17;6.13;;;0.50;99.90;;;;;;5036880;28;20207;-61
2023/01/21 04:35:58;;;;;;;9.33;6.43;;;0.50;99.90;;;;;;5036997;28;20192;-61
2023/01/21 04:38:24;;;;;;;6.77;5.27;;;0.50;99.90;;;;;;5035186;28;20200;-63
2023/01/21 04:40:49;;;;;;;6.50;5.63;;;0.50;99.90;;;;;;5022680;28;20259;-62
2023/01/21 04:43:15;;;;;;;9.43;5.83;;;0.50;99.90;;;;;;5036684;28;20212;-63
2023/01/21 04:45:40;;;;;;;7.50;5.67;;;0.60;99.90;;;;;;5036618;28;20574;-63
2023/01/21 04:48:06;;;;;;;9.37;5.93;;;0.60;99.90;;;;;;5036547;28;20232;-63
2023/01/21 04:50:31;;;;;;;9.57;6.00;;;0.60;99.90;;;;;;5036094;28;20213;-63
2023/01/21 04:52:57;;;;;;;7.37;6.03;;;0.60;99.90;;;;;;5034707;28;20812;-62
2023/01/21 04:55:22;;;;;;;10.10;6.93;;;0.60;99.90;;;;;;5036373;28;20298;-63
2023/01/21 04:57:48;;;;;;;9.20;6.57;;;0.60;99.90;;;;;;5036470;28;20222;-63
2023/01/21 05:00:14;;;;;;;7.80;6.07;;;0.60;99.90;;;;;;5036686;28;20258;-63
2023/01/21 05:02:39;;;;;;;7.10;5.90;;;0.60;99.90;;;;;;5035029;28;20274;-64
2023/01/21 05:05:05;;;;;;;7.90;6.10;;;0.60;99.90;;;;;;5034647;28;20212;-63
2023/01/21 05:07:31;;;;;;;7.73;6.10;;;0.50;99.90;;;;;;5036986;28;20239;-64
2023/01/21 05:09:56;;;;;;;8.90;5.93;;;0.40;99.90;;;;;;5036310;28;20683;-64
2023/01/21 05:12:22;;;;;;;8.43;6.17;;;0.40;99.90;;;;;;5036395;28;20976;-64
2023/01/21 05:14:47;;;;;;;8.43;7.23;;;0.30;99.90;;;;;;5036578;28;20189;-64
2023/01/21 05:17:13;;;;;;;7.73;5.60;;;0.30;99.90;;;;;;5036520;28;20212;-64
2023/01/21 05:19:38;;;;;;;9.87;6.10;;;0.30;99.90;;;;;;5024712;28;20683;-65
2023/01/21 05:22:03;;;;;;;10.13;6.20;;;0.30;99.90;;;;;;5019397;28;20636;-66
2023/01/21 05:24:29;;;;;;;7.73;5.67;;;0.40;99.90;;;;;;5036544;28;20220;-65
2023/01/21 05:26:55;;;;;;;8.03;5.67;;;0.40;99.90;;;;;;5036274;28;20216;-62
2023/01/21 05:29:20;;;;;;;9.93;6.23;;;0.40;99.90;;;;;;5036188;28;20203;-62
2023/01/21 05:31:46;;;;;;;7.10;5.90;;;0.50;99.90;;;;;;5036119;28;20198;-62
2023/01/21 05:34:12;;;;;;;9.33;6.07;;;0.50;99.90;;;;;;5034127;28;20193;-63
2023/01/21 05:36:38;;;;;;;9.07;5.83;;;0.50;99.90;;;;;;5036090;28;20247;-63
2023/01/21 05:39:04;;;;;;;8.97;6.20;;;0.50;99.90;;;;;;5035832;28;20204;-63
2023/01/21 05:41:29;;;;;;;7.53;5.37;;;0.50;99.90;;;;;;5035797;28;20214;-63
2023/01/21 05:43:55;;;;;;;8.50;5.87;;;0.50;99.90;;;;;;5036053;28;20202;-63
2023/01/21 05:46:20;;;;;;;11.77;6.67;;;0.50;99.90;;;;;;5034421;28;20192;-62
2023/01/21 05:48:46;;;;;;;10.47;6.23;;;0.60;99.90;;;;;;5035731;28;20239;-62
2023/01/21 05:51:11;;;;;;;10.80;6.93;;;0.60;99.90;;;;;;5034363;28;20303;-62
2023/01/21 05:53:37;;;;;;;8.50;6.27;;;0.60;99.90;;;;;;5033057;28;20240;-64
2023/01/21 05:56:02;;;;;;;7.10;6.40;;;0.70;99.90;;;;;;5035377;28;20239;-63
2023/01/21 05:58:28;;;;;;;8.77;6.30;;;0.70;99.90;;;;;;5035930;28;20251;-63
2023/01/21 06:00:56;;;;;;;9.53;6.40;;;0.70;99.90;;;;;;5032786;28;20368;-63
2023/01/21 06:03:21;;;;;;;10.13;5.73;;;0.80;99.90;;;;;;5035806;28;20220;-63
2023/01/21 06:05:48;;;;;;;8.80;6.73;;;0.80;99.90;;;;;;5035084;28;20204;-63
2023/01/21 06:08:17;;;;;;;7.83;6.30;;;0.80;99.90;;;;;;5035277;28;20214;-63
2023/01/21 06:10:44;;;;;;;11.07;6.43;;;0.80;99.90;;;;;;5028805;28;20227;-63
2023/01/21 06:13:14;;;;;;;6.93;5.93;;;0.90;99.90;;;;;;5035495;28;20209;-62
2023/01/21 06:15:39;;;;;;;8.23;7.00;;;0.90;99.90;;;;;;5035263;28;20228;-62
2023/01/21 06:18:05;;;;;;;6.03;5.40;;;0.90;99.90;;;;;;5035022;28;20220;-62
2023/01/21 06:20:31;;;;;;;12.80;7.00;;;0.90;99.90;;;;;;5035465;28;20763;-64
2023/01/21 06:22:59;;;;;;;13.30;7.07;;;0.90;99.90;;;;;;5035044;28;20905;-63
2023/01/21 06:25:25;;;;;;;10.37;7.63;;;0.90;99.90;;;;;;5021361;28;20524;-64
2023/01/21 06:27:53;;;;;;;9.33;6.20;;;0.90;99.90;;;;;;5035405;28;20251;-63
2023/01/21 06:30:18;;;;;;;10.27;8.17;;;0.90;99.90;;;;;;5037289;28;21249;-64
2023/01/21 06:32:44;;;;;;;9.97;8.37;;;1.00;99.90;;;;;;5038076;28;20692;-63
2023/01/21 06:35:09;;;;;;;12.30;8.53;;;1.00;99.90;;;;;;5032924;28;20205;-64
2023/01/21 06:37:35;;;;;;;8.97;7.30;;;1.10;99.90;;;;;;5035955;28;20229;-63
2023/01/21 06:40:00;;;;;;;11.87;8.40;;;1.10;99.90;;;;;;5038976;28;20252;-64
2023/01/21 06:42:26;;;;;;;11.60;7.43;;;1.10;99.90;;;;;;5038827;28;20199;-64
2023/01/21 06:44:51;;;;;;;10.33;7.40;;;1.20;99.90;;;;;;5038946;28;20207;-64
2023/01/21 06:47:16;;;;;;;11.47;8.10;;;1.20;99.90;;;;;;5038469;28;20202;-63
2023/01/21 06:49:42;;;;;;;13.17;9.40;;;1.20;99.90;;;;;;5037262;28;20214;-64
2023/01/21 06:52:08;;;;;;;11.07;8.20;;;1.20;99.90;;;;;;5037571;28;20765;-64
2023/01/21 06:54:33;;;;;;;11.53;9.27;;;1.20;99.90;;;;;;5024923;28;20286;-64
2023/01/21 06:57:00;;;;;;;14.80;9.80;;;1.20;99.90;;;;;;5038339;28;20240;-64
2023/01/21 06:59:25;;;;;;;11.80;8.00;;;1.30;99.90;;;;;;5038326;28;20201;-63
2023/01/21 07:01:52;;;;;;;12.40;9.57;;;1.30;99.90;;;;;;5038313;28;20229;-63
2023/01/21 07:04:17;;;;;;;12.87;9.57;;;1.30;99.90;;;;;;5038644;28;20198;-63
2023/01/21 07:06:43;;;;;;;10.77;8.40;;;1.30;99.90;;;;;;5037255;28;20452;-63
2023/01/21 07:09:08;;;;;;;14.10;10.57;;;1.30;99.90;;;;;;5037191;28;20206;-63
2023/01/21 07:11:34;;;;;;;16.07;9.57;;;1.30;99.90;;;;;;5038485;28;20208;-63
2023/01/21 07:14:00;;;;;;;13.57;9.27;;;1.30;99.90;;;;;;5038398;28;20598;-64
2023/01/21 07:16:25;;;;;;;12.77;9.47;;;1.30;99.90;;;;;;5033795;28;20229;-64
2023/01/21 07:18:51;;;;;;;18.97;12.03;;;1.30;99.90;;;;;;5025830;28;20292;-63
2023/01/21 07:21:16;;;;;;;18.57;10.67;;;1.30;99.90;;;;;;5027932;28;20239;-63
2023/01/21 07:23:43;;;;;;;15.17;11.27;;;1.30;99.90;;;;;;5027687;28;20224;-64
2023/01/21 07:26:08;;;;;;;18.67;11.70;;;1.20;99.90;;;;;;5030788;28;20698;-63
2023/01/21 07:28:34;;;;;;;15.30;10.90;;;1.20;99.90;;;;;;5024590;28;20202;-63
2023/01/21 07:31:00;;;;;;;18.97;12.27;;;1.20;99.90;;;;;;5025094;28;20234;-63
2023/01/21 07:33:26;;;;;;;20.00;12.43;;;1.30;99.90;;;;;;5032123;28;20667;-64
2023/01/21 07:35:52;;;;;;;15.07;11.93;;;1.30;99.90;;;;;;5024733;28;20294;-62
2023/01/21 07:38:17;;;;;;;19.10;12.83;;;1.40;99.90;;;;;;5028089;28;20211;-64
2023/01/21 07:40:43;;;;;;;17.70;11.13;;;1.40;99.90;;;;;;5028853;28;20289;-64
2023/01/21 07:43:09;;;;;;;18.70;12.37;;;1.40;99.90;;;;;;5026729;28;20199;-63
2023/01/21 07:45:34;;;;;;;15.20;11.37;;;1.40;99.90;;;;;;5026026;28;20280;-62
2023/01/21 07:48:00;;;;;;;18.50;11.73;;;1.40;99.90;;;;;;5027352;28;20194;-64
2023/01/21 07:50:26;;;;;;;13.87;10.97;;;1.40;99.90;;;;;;5027079;28;20236;-64
2023/01/21 07:52:53;;;;;;;16.47;10.57;;;1.40;99.90;;;;;;5027391;28;20213;-64
2023/01/21 07:55:19;;;;;;;16.13;11.87;;;1.40;99.90;;;;;;5027320;28;20236;-64
2023/01/21 07:57:44;;;;;;;20.27;12.70;;;1.40;99.90;;;;;;5026960;28;20218;-63
2023/01/21 08:00:11;;;;;;;15.13;11.67;;;1.40;99.90;;;;;;5026199;28;20245;-64
2023/01/21 08:02:36;;;;;;;15.33;11.47;;;1.40;99.90;;;;;;5027717;28;20213;-63
2023/01/21 08:05:02;;;;;;;18.17;12.40;;;1.40;99.90;;;;;;5027907;28;20215;-63
2023/01/21 08:07:28;;;;;;;20.87;12.87;;;1.40;99.90;;;;;;5027218;28;20290;-63
2023/01/21 08:09:53;;;;;;;19.03;12.50;;;1.50;99.90;;;;;;5027202;28;20232;-63
2023/01/21 08:12:19;;;;;;;18.33;12.40;;;1.50;99.90;;;;;;5025365;28;20220;-63
2023/01/21 08:14:44;;;;;;;18.37;11.93;;;1.50;99.90;;;;;;5022873;28;20198;-65
2023/01/21 08:17:09;;;;;;;18.00;11.70;;;1.60;99.90;;;;;;5019535;28;20351;-64
2023/01/21 08:19:35;;;;;;;19.50;12.60;;;1.60;99.90;;;;;;5027968;28;20209;-63
2023/01/21 08:22:00;;;;;;;18.40;12.37;;;1.60;99.90;;;;;;5024941;28;20199;-62
2023/01/21 08:24:26;;;;;;;17.67;12.87;;;1.70;99.90;;;;;;5024599;28;20576;-63
2023/01/21 08:26:51;;;;;;;18.53;12.53;;;1.70;99.90;;;;;;5025331;28;20198;-62
2023/01/21 08:29:17;;;;;;;15.00;11.83;;;1.70;99.90;;;;;;5025765;28;20592;-62
2023/01/21 08:31:42;;;;;;;17.27;11.63;;;1.80;99.90;;;;;;5026159;28;20205;-63
2023/01/21 08:34:08;;;;;;;15.73;11.53;;;1.70;99.90;;;;;;5027188;28;20557;-63
2023/01/21 08:36:33;;;;;;;15.50;11.23;;;1.80;99.90;;;;;;5026531;28;20224;-64
2023/01/21 08:39:00;;;;;;;16.60;11.37;;;1.80;99.90;;;;;;5024707;28;20288;-63
2023/01/21 08:41:26;;;;;;;14.17;11.30;;;1.90;99.90;;;;;;5024181;28;20368;-63
2023/01/21 08:43:52;;;;;;;17.70;11.40;;;1.90;99.90;;;;;;5025814;28;20286;-62
2023/01/21 08:46:17;;;;;;;17.10;12.07;;;1.90;99.90;;;;;;5026200;28;20579;-62
2023/01/21 08:48:43;;;;;;;18.27;11.83;;;2.00;99.90;;;;;;5027231;28;20217;-64
2023/01/21 08:51:08;;;;;;;16.37;10.60;;;2.00;99.90;;;;;;5024791;28;20301;-62
2023/01/21 08:53:34;;;;;;;15.43;11.30;;;2.00;99.90;;;;;;5024396;28;20718;-61
2023/01/21 08:56:03;;;;;;;18.00;11.43;;;2.10;99.90;;;;;;5023889;28;20670;-62
2023/01/21 08:58:30;;;;;;;14.37;10.43;;;2.10;99.90;;;;;;5028669;28;20229;-71
2023/01/21 09:00:56;;;;;;;13.67;10.17;;;2.10;99.90;;;;;;5024342;28;20201;-75
2023/01/21 09:03:21;;;;;;;12.83;9.87;;;2.10;99.90;;;;;;5025166;28;20194;-72
2023/01/21 09:05:50;;;;;;;14.93;9.87;;;2.10;99.90;;;;;;5025526;28;20274;-72
2023/01/21 09:08:16;;;;;;;14.00;10.13;;;2.20;99.90;;;;;;5021204;28;20221;-72
2023/01/21 09:11:00;;;;;;;14.87;9.97;;;2.20;99.90;;;;;;5025513;28;20201;-73
2023/01/21 09:13:27;;;;;;;11.73;9.33;;;2.20;99.90;;;;;;5017455;28;20691;-76
2023/01/21 09:15:52;;;;;;;11.77;9.20;;;2.20;99.90;;;;;;5018139;28;20296;-72
2023/01/21 09:18:18;;;;;;;15.53;10.27;;;2.20;99.90;;;;;;5018720;28;20673;-72
2023/01/21 09:20:44;;;;;;;12.33;9.37;;;2.30;99.90;;;;;;5017451;28;20213;-73
2023/01/21 09:23:24;;;;;;;16.27;11.17;;;2.30;99.90;;;;;;5017839;28;20283;-72
2023/01/21 09:26:13;;;;;;;14.23;10.33;;;2.30;99.90;;;;;;5016444;28;20218;-69
2023/01/21 09:28:41;;;;;;;17.03;12.07;;;2.40;99.90;;;;;;5018314;28;20231;-70
2023/01/21 09:31:12;;;;;;;15.73;12.43;;;2.40;99.90;;;;;;5015159;28;20698;-72
2023/01/21 09:33:40;;;;;;;16.53;12.13;;;2.40;99.90;;;;;;5018273;28;20829;-72
2023/01/21 09:36:08;;;;;;;16.60;11.07;;;2.50;99.90;;;;;;5019039;28;20207;-72
2023/01/21 09:38:33;;;;;;;13.47;10.03;;;2.50;99.90;;;;;;5018934;28;20221;-74
2023/01/21 09:41:24;;;;;;;17.23;11.63;;;2.50;99.90;;;;;;5018971;28;20206;-72
2023/01/21 09:44:02;;;;;;;19.50;12.23;;;2.50;99.90;;;;;;5016677;28;20202;-72
2023/01/21 09:46:36;;;;;;;17.40;11.37;;;2.60;99.90;;;;;;5018251;28;20225;-70
2023/01/21 09:49:05;;;;;;;19.00;12.60;;;2.60;99.90;;;;;;5017305;28;20249;-72
2023/01/21 09:51:55;;;;;;;16.63;11.40;;;2.60;99.90;;;;;;5025434;28;20624;-71
2023/01/21 09:54:27;;;;;;;18.90;12.33;;;2.60;99.90;;;;;;5019963;28;20222;-71
2023/01/21 09:57:13;;;;;;;17.97;12.30;;;2.70;99.90;;;;;;5025014;28;20701;-73
2023/01/21 10:00:04;;;;;;;18.30;11.40;;;2.70;99.90;;;;;;5026639;28;20196;-70
2023/01/21 10:02:47;;;;;;;15.13;11.57;;;2.80;99.90;;;;;;5021191;28;20241;-72
2023/01/21 10:05:42;;;;;;;14.30;10.97;;;2.80;99.90;;;;;;5022986;28;20201;-71
2023/01/21 10:08:29;;;;;;;16.40;9.60;;;2.90;99.90;;;;;;5021297;28;20624;-73
2023/01/21 10:11:29;;;;;;;19.07;10.63;;;2.90;99.90;;;;;;5028178;28;20710;-69
2023/01/21 10:14:21;;;;;;;12.50;9.50;;;3.00;99.90;;;;;;5015873;28;20293;-72
2023/01/21 10:17:24;;;;;;;17.50;10.73;;;3.10;99.90;;;;;;5019977;28;20277;-72
2023/01/21 10:20:10;;;;;;;13.07;9.23;;;3.10;99.90;;;;;;5019424;28;20219;-72
2023/01/21 10:22:42;;;;;;;12.47;9.33;;;3.20;99.90;;;;;;5022404;28;20298;-72
2023/01/21 10:25:27;;;;;;;15.37;9.37;;;3.20;99.90;;;;;;5029534;28;20211;-72
2023/01/21 10:27:56;;;;;;;14.67;10.30;;;3.20;99.90;;;;;;5028869;28;20226;-73
2023/01/21 10:30:27;;;;;;;15.37;9.97;;;3.20;99.90;;;;;;5029044;28;20724;-72
2023/01/21 10:32:54;;;;;;;13.47;9.77;;;3.20;99.90;;;;;;5029275;28;20344;-72
2023/01/21 10:35:37;;;;;;;14.03;10.40;;;3.20;99.90;;;;;;5029147;28;20579;-73
2023/01/21 10:38:12;;;;;;;13.30;10.37;;;3.20;99.90;;;;;;5024465;28;20685;-71
2023/01/21 10:40:54;;;;;;;12.47;9.10;;;3.20;99.90;;;;;;5026592;28;20724;-72
2023/01/21 10:43:39;;;;;;;14.97;9.80;;;3.10;99.90;;;;;;5021164;28;20283;-70
2023/01/21 10:46:05;;;;;;;14.63;9.80;;;3.10;99.90;;;;;;5023812;28;20252;-72
2023/01/21 10:48:49;;;;;;;15.97;10.50;;;3.10;99.90;;;;;;5027587;28;20219;-70
2023/01/21 10:51:36;;;;;;;12.40;9.33;;;3.20;99.90;;;;;;5025507;28;20210;-69
2023/01/21 10:54:15;;;;;;;13.13;9.23;;;3.20;99.90;;;;;;5024129;28;20622;-70
2023/01/21 10:56:56;;;;;;;13.40;9.87;;;3.20;99.90;;;;;;5028233;28;20219;-71
2023/01/21 10:59:26;;;;;;;11.93;9.07;;;3.40;99.90;;;;;;5020618;28;20244;-71
2023/01/21 11:02:21;;;;;;;14.37;9.20;;;3.60;99.90;;;;;;5028841;28;20195;-58
2023/01/21 11:04:47;;;;;;;12.37;9.37;;;3.90;99.90;;;;;;5026695;28;20302;-71
2023/01/21 11:07:16;;;;;;;11.20;8.83;;;4.20;99.90;;;;;;5026141;28;20288;-69
2023/01/21 11:09:45;;;;;;;11.30;9.20;;;4.40;99.90;;;;;;5028161;28;20203;-72
2023/01/21 11:12:20;;;;;;;12.77;10.40;;;4.30;99.90;;;;;;5018199;28;20199;-71
2023/01/21 11:14:54;;;;;;;12.80;8.80;;;4.30;99.90;;;;;;5020061;28;21166;-73
2023/01/21 11:17:55;;;;;;;11.57;9.63;;;4.30;99.90;;;;;;5022572;28;20666;-72
2023/01/21 11:20:37;;;;;;;11.63;8.97;;;4.30;99.90;;;;;;5018090;28;20210;-72
2023/01/21 11:23:04;;;;;;;12.43;8.97;;;4.20;99.90;;;;;;5020718;28;20226;-72
2023/01/21 11:25:37;;;;;;;10.80;9.17;;;4.20;99.90;;;;;;5023807;28;20203;-72
2023/01/21 11:28:04;;;;;;;11.00;9.00;;;4.20;99.90;;;;;;5024813;28;20210;-71
2023/01/21 11:30:36;;;;;;;10.93;8.33;;;4.20;99.90;;;;;;5018965;28;20294;-70
2023/01/21 11:33:21;;;;;;;14.63;7.83;;;4.20;99.90;;;;;;5020732;28;20648;-72
2023/01/21 11:35:47;;;;;;;10.77;8.83;;;4.20;99.90;;;;;;5022394;28;20216;-67
2023/01/21 11:38:23;;;;;;;12.93;9.97;;;4.20;99.90;;;;;;5026688;28;20206;-68
2023/01/21 11:41:02;;;;;;;12.30;8.90;;;4.20;99.90;;;;;;5027454;28;20203;-72
2023/01/21 11:43:41;;;;;;;11.03;8.93;;;4.30;99.90;;;;;;5022405;28;20927;-71
2023/01/21 11:46:27;;;;;;;13.03;9.80;;;4.50;99.90;;;;;;5026306;28;20282;-72
2023/01/21 11:49:05;;;;;;;11.10;9.40;;;4.60;99.90;;;;;;5027544;28;20223;-72
2023/01/21 11:51:31;;;;;;;14.70;9.90;;;4.70;99.90;;;;;;5022909;28;20221;-73
2023/01/21 11:54:12;;;;;;;11.40;8.37;;;4.70;99.90;;;;;;5025132;28;20709;-68
2023/01/21 11:56:39;;;;;;;10.43;7.90;;;4.70;99.90;;;;;;5018182;28;20223;-71
2023/01/21 11:59:30;;;;;;;11.40;8.00;;;4.70;99.90;;;;;;5022509;28;20213;-70
2023/01/21 12:02:14;;;;;;;12.27;8.37;;;4.70;99.90;;;;;;5023199;28;20631;-73
2023/01/21 12:05:03;;;;;;;12.13;8.17;;;4.60;99.90;;;;;;5021112;28;20675;-71
2023/01/21 12:07:32;;;;;;;15.00;8.53;;;4.60;99.90;;;;;;5018219;28;20210;-71
2023/01/21 12:10:22;;;;;;;9.63;7.57;;;4.50;99.90;;;;;;5018637;28;20202;-71
2023/01/21 12:13:21;;;;;;;9.67;7.53;;;4.50;99.90;;;;;;5020800;28;20335;-76
2023/01/21 12:16:41;;;;;;;8.93;7.30;;;4.50;99.90;;;;;;5018709;28;20188;-72
2023/01/21 12:19:26;;;;;;;9.13;6.67;;;4.50;99.90;;;;;;5001432;28;20204;-72
2023/01/21 12:22:09;;;;;;;10.27;7.10;;;4.50;99.90;;;;;;5017249;28;20219;-71
2023/01/21 12:24:57;;;;;;;9.43;6.80;;;4.50;99.90;;;;;;5027766;28;20202;-74
2023/01/21 12:27:47;;;;;;;7.27;6.13;;;4.50;99.90;;;;;;5035508;28;20277;-70
2023/01/21 12:30:38;;;;;;;10.93;7.43;;;4.60;99.90;;;;;;5037065;28;20608;-77
2023/01/21 12:33:18;;;;;;;13.47;7.67;;;4.60;99.90;;;;;;5036863;28;20539;-73
2023/01/21 12:35:57;;;;;;;8.87;6.27;;;4.60;99.90;;;;;;5032492;28;20221;-73
2023/01/21 12:38:33;;;;;;;8.63;6.50;;;4.60;99.90;;;;;;5036644;28;20214;-72
2023/01/21 12:41:07;;;;;;;8.93;6.70;;;4.60;99.90;;;;;;5036723;28;20273;-73
2023/01/21 12:43:43;;;;;;;8.03;5.87;;;4.70;99.90;;;;;;5037130;28;20344;-71
2023/01/21 12:46:12;;;;;;;8.37;7.10;;;4.70;99.90;;;;;;5035967;28;20194;-73
2023/01/21 12:49:04;;;;;;;7.80;6.17;;;4.70;99.90;;;;;;5033917;28;22861;-72
2023/01/21 12:51:36;;;;;;;10.00;7.00;;;4.80;99.90;;;;;;5015041;28;20701;-72
2023/01/21 12:54:22;;;;;;;6.70;5.93;;;4.80;99.90;;;;;;5036646;28;20225;-76
2023/01/21 12:57:25;;;;;;;7.33;5.57;;;4.70;99.90;;;;;;5035790;28;20222;-58
2023/01/21 13:00:21;;;;;;;9.73;6.90;;;4.90;99.90;;;;;;5036127;28;20596;-57
2023/01/21 13:02:50;;;;;;;9.70;6.37;;;5.20;99.90;;;;;;5024697;28;20203;-70
2023/01/21 13:05:34;;;;;;;8.37;5.83;;;5.20;99.90;;;;;;5018894;28;20649;-70
2023/01/21 13:08:44;;;;;;;8.97;5.87;;;5.20;99.90;;;;;;5022389;28;20249;-68
2023/01/21 13:11:18;;;;;;;7.53;5.73;;;5.00;99.90;;;;;;5018146;28;20215;-70
2023/01/21 13:14:25;;;;;;;6.43;5.53;;;4.90;99.90;;;;;;5021992;28;20707;-70
2023/01/21 13:16:56;;;;;;;7.43;5.40;;;4.80;99.90;;;;;;5023976;28;20305;-70